Time;durP1;ratioP1;P1;durP2;ratioP2;P2;SDS_P1;SDS_P2;PMS_P1;PMS_P2;Temp;Humidity;BMP_temperature;BMP_pressure;BME280_temperature;BME280_humidity;BME280_pressure;Samples;Min_cycle;Max_cycle;Signal;HPM_P1;HPM_P2
2023/04/21 00:01:01;;;;;;;17.90;10.13;;;9.90;99.90;;;;;;5025861;28;20175;-35
2023/04/21 00:03:28;;;;;;;15.70;9.77;;;9.90;99.90;;;;;;5036291;28;20128;-35
2023/04/21 00:06:00;;;;;;;14.73;9.60;;;9.80;99.90;;;;;;5034108;28;20065;-35
2023/04/21 00:08:26;;;;;;;17.33;11.20;;;9.80;99.90;;;;;;5036324;28;20045;-35
2023/04/21 00:10:52;;;;;;;17.55;11.00;;;9.80;99.90;;;;;;5028285;28;20048;-35
2023/04/21 00:13:17;;;;;;;16.02;9.95;;;9.80;99.90;;;;;;5017887;28;20050;-35
2023/04/21 00:15:43;;;;;;;15.52;10.40;;;9.80;99.90;;;;;;5026301;28;20080;-35
2023/04/21 00:18:09;;;;;;;19.23;11.18;;;9.80;99.90;;;;;;5034330;28;20407;-35
2023/04/21 00:20:35;;;;;;;16.13;10.25;;;9.70;99.90;;;;;;5024372;28;20056;-35
2023/04/21 00:23:00;;;;;;;18.33;9.93;;;9.70;99.90;;;;;;5017960;28;20045;-35
2023/04/21 00:25:26;;;;;;;20.88;11.40;;;9.70;99.90;;;;;;5016378;28;20053;-35
2023/04/21 00:27:52;;;;;;;15.52;10.13;;;9.70;99.90;;;;;;5014271;28;20056;-35
2023/04/21 00:30:18;;;;;;;16.45;9.80;;;9.60;99.90;;;;;;5038631;28;20079;-35
2023/04/21 00:32:43;;;;;;;16.27;9.65;;;9.60;99.90;;;;;;5012691;28;20412;-35
2023/04/21 00:35:09;;;;;;;18.27;10.85;;;9.60;99.90;;;;;;5021267;28;20060;-35
2023/04/21 00:37:35;;;;;;;18.70;10.35;;;9.60;99.90;;;;;;5030285;28;20053;-35
2023/04/21 00:40:03;;;;;;;18.00;10.45;;;9.60;99.90;;;;;;5020025;28;20488;-35
2023/04/21 00:42:28;;;;;;;16.27;9.70;;;9.50;99.90;;;;;;5036607;28;20514;-35
2023/04/21 00:44:54;;;;;;;15.85;9.75;;;9.50;99.90;;;;;;5046491;28;20045;-36
2023/04/21 00:47:20;;;;;;;19.65;10.93;;;9.40;99.90;;;;;;5041547;28;20053;-35
2023/04/21 00:49:46;;;;;;;19.17;10.18;;;9.40;99.90;;;;;;5039579;28;20550;-35
2023/04/21 00:52:14;;;;;;;19.30;10.77;;;9.40;99.90;;;;;;5018659;28;20184;-35
2023/04/21 00:54:40;;;;;;;20.45;9.65;;;9.40;99.90;;;;;;5027623;28;20061;-35
2023/04/21 00:57:06;;;;;;;24.50;9.75;;;9.40;99.90;;;;;;5024061;28;20053;-35
2023/04/21 00:59:33;;;;;;;19.40;9.60;;;9.30;99.90;;;;;;5037005;28;20128;-35
2023/04/21 01:01:59;;;;;;;19.52;10.55;;;9.30;99.90;;;;;;5042307;28;20114;-35
2023/04/21 01:04:24;;;;;;;19.15;10.07;;;9.30;99.90;;;;;;5028821;28;20049;-35
2023/04/21 01:06:50;;;;;;;16.45;9.82;;;9.30;99.90;;;;;;5035341;28;20057;-35
2023/04/21 01:09:16;;;;;;;15.32;9.23;;;9.20;99.90;;;;;;5027766;28;20491;-35
2023/04/21 01:11:58;;;;;;;19.67;9.80;;;9.20;99.90;;;;;;5041732;28;20053;-36
2023/04/21 01:14:25;;;;;;;17.95;9.20;;;9.20;99.90;;;;;;5025942;28;20543;-35
2023/04/21 01:16:51;;;;;;;17.52;10.05;;;9.20;99.90;;;;;;5026208;28;20125;-35
2023/04/21 01:19:19;;;;;;;14.43;9.05;;;9.20;99.90;;;;;;5026720;28;20081;-35
2023/04/21 01:21:44;;;;;;;14.98;8.77;;;9.20;99.90;;;;;;5038375;28;20111;-35
2023/04/21 01:24:10;;;;;;;14.35;9.07;;;9.20;99.90;;;;;;5014804;28;20049;-34
2023/04/21 01:26:36;;;;;;;14.88;8.77;;;9.20;99.90;;;;;;5022185;28;20045;-35
2023/04/21 01:29:02;;;;;;;15.73;9.43;;;9.10;99.90;;;;;;5025716;28;20083;-34
2023/04/21 01:31:27;;;;;;;14.40;8.57;;;9.10;99.90;;;;;;5022904;28;20077;-35
2023/04/21 01:33:53;;;;;;;14.38;10.23;;;9.10;99.90;;;;;;5012280;28;20050;-35
2023/04/21 01:36:19;;;;;;;16.60;8.70;;;9.10;99.90;;;;;;5012410;28;20461;-35
2023/04/21 01:38:44;;;;;;;14.63;8.02;;;9.10;99.90;;;;;;5024298;28;20491;-35
2023/04/21 01:41:10;;;;;;;14.88;7.82;;;9.10;99.90;;;;;;5018028;28;20049;-35
2023/04/21 01:43:36;;;;;;;14.43;7.95;;;9.10;99.90;;;;;;5024934;28;20080;-34
2023/04/21 01:46:03;;;;;;;13.57;8.18;;;9.10;99.90;;;;;;5040339;28;20076;-34
2023/04/21 01:48:29;;;;;;;12.80;8.20;;;9.10;99.90;;;;;;5017908;28;20103;-35
2023/04/21 01:50:55;;;;;;;15.27;8.07;;;9.10;99.90;;;;;;5035748;28;20053;-35
2023/04/21 01:53:20;;;;;;;15.63;7.85;;;9.20;99.90;;;;;;5026598;28;21513;-35
2023/04/21 01:55:46;;;;;;;13.07;7.57;;;9.20;99.90;;;;;;5043251;28;20511;-36
2023/04/21 01:58:12;;;;;;;13.43;8.00;;;9.20;99.90;;;;;;5029342;28;20045;-35
2023/04/21 02:00:37;;;;;;;14.90;8.75;;;9.30;99.90;;;;;;5036033;28;20393;-36
2023/04/21 02:03:03;;;;;;;12.48;7.60;;;9.30;99.90;;;;;;5023899;28;20046;-35
2023/04/21 02:05:29;;;;;;;15.57;7.55;;;9.30;99.90;;;;;;5027130;28;20416;-36
2023/04/21 02:07:55;;;;;;;12.70;8.52;;;9.40;99.90;;;;;;5034723;28;20053;-35
2023/04/21 02:10:20;;;;;;;12.82;7.75;;;9.40;99.90;;;;;;5039259;28;20056;-35
2023/04/21 02:12:46;;;;;;;13.63;8.10;;;9.40;99.90;;;;;;5043361;28;20141;-35
2023/04/21 02:15:12;;;;;;;15.52;8.52;;;9.40;99.90;;;;;;5026157;28;20156;-35
2023/04/21 02:17:37;;;;;;;13.45;7.72;;;9.40;99.90;;;;;;5032549;28;20045;-36
2023/04/21 02:20:04;;;;;;;15.50;7.70;;;9.50;99.90;;;;;;5042966;28;20049;-35
2023/04/21 02:22:31;;;;;;;12.20;7.45;;;9.50;99.90;;;;;;5037065;28;20137;-35
2023/04/21 02:24:56;;;;;;;11.57;7.15;;;9.50;99.90;;;;;;5023959;28;20092;-36
2023/04/21 02:27:22;;;;;;;16.98;8.30;;;9.60;99.90;;;;;;5032927;28;20044;-35
2023/04/21 02:29:48;;;;;;;12.00;7.72;;;9.50;99.90;;;;;;5031984;28;20045;-36
2023/04/21 02:32:13;;;;;;;13.85;8.23;;;9.50;99.90;;;;;;5031877;28;20041;-36
2023/04/21 02:34:40;;;;;;;11.88;6.70;;;9.60;99.90;;;;;;5026431;28;20049;-35
2023/04/21 02:37:06;;;;;;;12.05;7.32;;;9.60;99.90;;;;;;5029534;28;20045;-35
2023/04/21 02:39:32;;;;;;;12.32;7.72;;;9.60;99.90;;;;;;5034912;28;20056;-36
2023/04/21 02:41:57;;;;;;;10.18;6.70;;;9.60;99.90;;;;;;5028629;28;20056;-36
2023/04/21 02:44:23;;;;;;;11.35;6.40;;;9.60;99.90;;;;;;5034176;28;20053;-35
2023/04/21 02:46:49;;;;;;;14.65;7.43;;;9.60;99.90;;;;;;5028903;28;20072;-35
2023/04/21 02:49:14;;;;;;;14.80;7.35;;;9.60;99.90;;;;;;5028412;28;20065;-35
2023/04/21 02:51:40;;;;;;;12.18;7.20;;;9.60;99.90;;;;;;5039393;28;20471;-36
2023/04/21 02:54:06;;;;;;;10.90;6.57;;;9.70;99.90;;;;;;5028820;28;20319;-35
2023/04/21 02:56:33;;;;;;;10.43;6.72;;;9.70;99.90;;;;;;5029680;28;20491;-35
2023/04/21 02:58:59;;;;;;;12.23;7.90;;;9.70;99.90;;;;;;5029889;28;20045;-35
2023/04/21 03:01:24;;;;;;;12.82;7.10;;;9.70;99.90;;;;;;5035404;28;20110;-35
2023/04/21 03:03:50;;;;;;;11.57;6.72;;;9.70;99.90;;;;;;5037222;28;20060;-36
2023/04/21 03:06:16;;;;;;;9.18;6.35;;;9.70;99.90;;;;;;5031179;28;20067;-35
2023/04/21 03:08:42;;;;;;;10.27;6.68;;;9.70;99.90;;;;;;5030797;28;20049;-36
2023/04/21 03:11:07;;;;;;;13.05;7.40;;;9.70;99.90;;;;;;5031747;28;20052;-35
2023/04/21 03:13:33;;;;;;;11.68;6.72;;;9.70;99.90;;;;;;5030294;28;20045;-35
2023/04/21 03:15:59;;;;;;;9.55;6.22;;;9.70;99.90;;;;;;5037927;28;20565;-36
2023/04/21 03:18:24;;;;;;;10.85;6.78;;;9.70;99.90;;;;;;5028499;28;20052;-35
2023/04/21 03:20:50;;;;;;;13.50;6.30;;;9.70;99.90;;;;;;5033167;28;20061;-36
2023/04/21 03:23:16;;;;;;;12.98;6.95;;;9.60;99.90;;;;;;5030656;28;20053;-35
2023/04/21 03:25:42;;;;;;;11.30;6.68;;;9.70;99.90;;;;;;5029663;28;20056;-35
2023/04/21 03:28:08;;;;;;;10.82;6.30;;;9.70;99.90;;;;;;5023235;28;20076;-36
2023/04/21 03:30:33;;;;;;;13.30;6.05;;;9.70;99.90;;;;;;5024067;28;20406;-36
2023/04/21 03:32:59;;;;;;;14.57;7.53;;;9.70;99.90;;;;;;5034957;28;20469;-35
2023/04/21 03:35:25;;;;;;;9.63;6.43;;;9.70;99.90;;;;;;5035868;28;20450;-35
2023/04/21 03:37:51;;;;;;;11.88;7.28;;;9.60;99.90;;;;;;5030367;28;20628;-36
2023/04/21 03:40:17;;;;;;;10.75;7.13;;;9.70;99.90;;;;;;5032008;28;20052;-35
2023/04/21 03:42:42;;;;;;;9.93;6.80;;;9.70;99.90;;;;;;5033860;28;20057;-36
2023/04/21 03:45:09;;;;;;;10.98;6.68;;;9.60;99.90;;;;;;5029668;28;20054;-35
2023/04/21 03:47:35;;;;;;;13.45;6.25;;;9.70;99.90;;;;;;5030516;28;20042;-35
2023/04/21 03:50:05;;;;;;;11.35;6.13;;;9.60;99.90;;;;;;5033755;28;20072;-35
2023/04/21 03:52:31;;;;;;;12.68;7.10;;;9.60;99.90;;;;;;5024848;28;20052;-36
2023/04/21 03:54:57;;;;;;;12.15;6.95;;;9.60;99.90;;;;;;5028906;28;20118;-36
2023/04/21 03:57:22;;;;;;;9.98;6.07;;;9.60;99.90;;;;;;5045007;28;20191;-35
2023/04/21 03:59:48;;;;;;;13.27;6.28;;;9.60;99.90;;;;;;5036009;28;20106;-35
2023/04/21 04:02:14;;;;;;;13.27;6.85;;;9.60;99.90;;;;;;5032534;28;20052;-36
2023/04/21 04:04:39;;;;;;;14.80;6.32;;;9.60;99.90;;;;;;5028384;28;20049;-35
2023/04/21 04:07:07;;;;;;;10.95;6.10;;;9.60;99.90;;;;;;5028079;28;20526;-35
2023/04/21 04:09:32;;;;;;;10.85;6.00;;;9.60;99.90;;;;;;5027310;28;20057;-35
2023/04/21 04:11:58;;;;;;;13.50;6.72;;;9.50;99.90;;;;;;5030773;28;20053;-36
2023/04/21 04:14:24;;;;;;;13.07;6.05;;;9.50;99.90;;;;;;5032494;28;20233;-35
2023/04/21 04:16:49;;;;;;;9.65;6.13;;;9.50;99.90;;;;;;5031594;28;20045;-36
2023/04/21 04:19:15;;;;;;;9.25;5.85;;;9.50;99.90;;;;;;5032903;28;20123;-36
2023/04/21 04:21:41;;;;;;;10.52;6.60;;;9.40;99.90;;;;;;5033925;28;20518;-35
2023/04/21 04:24:07;;;;;;;12.68;6.28;;;9.40;99.90;;;;;;5028235;28;20077;-35
2023/04/21 04:26:34;;;;;;;11.18;5.40;;;9.40;99.90;;;;;;5027855;28;20099;-36
2023/04/21 04:29:01;;;;;;;9.80;5.50;;;9.40;99.90;;;;;;5034826;28;20053;-36
2023/04/21 04:31:29;;;;;;;9.93;6.13;;;9.40;99.90;;;;;;5032685;28;20081;-35
2023/04/21 04:33:55;;;;;;;9.02;4.90;;;9.30;99.90;;;;;;5031502;28;20412;-35
2023/04/21 04:36:21;;;;;;;10.95;5.80;;;9.30;99.90;;;;;;5029256;28;20145;-36
2023/04/21 04:38:47;;;;;;;11.35;6.40;;;9.30;99.90;;;;;;5029451;28;20457;-37
2023/04/21 04:41:14;;;;;;;11.23;6.28;;;9.30;99.90;;;;;;5033563;28;20417;-37
2023/04/21 04:43:40;;;;;;;10.82;6.03;;;9.30;99.90;;;;;;5035300;28;20525;-35
2023/04/21 04:46:07;;;;;;;9.63;5.78;;;9.40;99.90;;;;;;5039309;28;20064;-36
2023/04/21 04:48:33;;;;;;;12.35;5.45;;;9.40;99.90;;;;;;5040697;28;20503;-35
2023/04/21 04:50:59;;;;;;;10.25;5.68;;;9.40;99.90;;;;;;5034398;28;20530;-35
2023/04/21 04:53:27;;;;;;;11.68;5.85;;;9.40;99.90;;;;;;5034482;28;20483;-37
2023/04/21 04:55:53;;;;;;;16.83;5.88;;;9.50;99.90;;;;;;5037454;28;20049;-35
2023/04/21 04:58:19;;;;;;;14.05;5.82;;;9.50;99.90;;;;;;5033976;28;20091;-35
2023/04/21 05:00:45;;;;;;;13.95;6.45;;;9.60;99.90;;;;;;5027021;28;20499;-36
2023/04/21 05:03:11;;;;;;;8.35;5.40;;;9.60;99.90;;;;;;5033406;28;20495;-35
2023/04/21 05:05:36;;;;;;;11.77;5.75;;;9.70;99.90;;;;;;5029068;28;20053;-35
2023/04/21 05:08:02;;;;;;;10.00;5.72;;;9.70;99.90;;;;;;5037958;28;20491;-35
2023/04/21 05:10:28;;;;;;;9.63;5.57;;;9.80;99.90;;;;;;5046711;28;20048;-36
2023/04/21 05:12:54;;;;;;;8.57;5.35;;;9.80;99.90;;;;;;5029508;28;20084;-35
2023/04/21 05:15:21;;;;;;;9.90;6.00;;;9.90;99.90;;;;;;5034115;28;20510;-36
2023/04/21 05:17:47;;;;;;;9.05;5.75;;;9.90;99.90;;;;;;5039508;28;20057;-35
2023/04/21 05:20:13;;;;;;;10.52;6.07;;;9.90;99.90;;;;;;5044865;28;20548;-36
2023/04/21 05:22:39;;;;;;;11.80;6.07;;;9.90;99.90;;;;;;5031799;28;20053;-35
2023/04/21 05:25:06;;;;;;;11.35;5.53;;;10.00;99.90;;;;;;5028133;28;20480;-36
2023/04/21 05:27:32;;;;;;;11.88;6.22;;;10.10;99.90;;;;;;5037911;28;20521;-36
2023/04/21 05:29:59;;;;;;;9.68;5.55;;;10.00;99.90;;;;;;5043885;28;20049;-36
2023/04/21 05:32:24;;;;;;;8.52;6.07;;;10.10;99.90;;;;;;5020107;28;20045;-36
2023/04/21 05:34:50;;;;;;;10.43;5.55;;;10.20;99.90;;;;;;5009659;28;20058;-36
2023/04/21 05:37:16;;;;;;;9.27;5.50;;;10.20;99.90;;;;;;5036492;28;20522;-36
2023/04/21 05:39:41;;;;;;;14.23;5.88;;;10.20;99.90;;;;;;5025192;28;20052;-35
2023/04/21 05:42:10;;;;;;;9.73;6.13;;;10.30;99.90;;;;;;5021014;28;20135;-36
2023/04/21 05:44:36;;;;;;;11.38;6.28;;;10.20;99.90;;;;;;5026621;28;20042;-36
2023/04/21 05:47:04;;;;;;;9.82;5.72;;;10.30;99.90;;;;;;5025254;28;20144;-35
2023/04/21 05:49:29;;;;;;;12.98;6.40;;;10.30;99.90;;;;;;5030620;28;20091;-36
2023/04/21 05:51:55;;;;;;;11.20;5.65;;;10.30;99.90;;;;;;5036742;28;20049;-36
2023/04/21 05:54:21;;;;;;;10.70;5.30;;;10.20;99.90;;;;;;5037945;28;20114;-36
2023/04/21 05:56:47;;;;;;;10.27;5.40;;;10.20;99.90;;;;;;5032339;28;20041;-35
2023/04/21 05:59:13;;;;;;;9.73;6.57;;;10.30;99.90;;;;;;5028485;28;20471;-36
2023/04/21 06:01:38;;;;;;;9.30;5.63;;;10.30;99.90;;;;;;5014644;28;20132;-36
2023/04/21 06:04:04;;;;;;;10.43;5.88;;;10.30;99.90;;;;;;5029003;28;20065;-36
2023/04/21 06:06:30;;;;;;;9.98;5.80;;;10.30;99.90;;;;;;5012549;28;20415;-36
2023/04/21 06:08:56;;;;;;;9.80;5.60;;;10.40;99.90;;;;;;5013886;28;20088;-35
2023/04/21 06:11:22;;;;;;;9.77;5.50;;;10.40;99.90;;;;;;5027640;28;20045;-35
2023/04/21 06:13:49;;;;;;;12.27;5.47;;;10.50;99.90;;;;;;5021971;28;20049;-36
2023/04/21 06:16:15;;;;;;;10.57;5.80;;;10.50;99.90;;;;;;5024795;28;20065;-35
2023/04/21 06:18:41;;;;;;;8.90;5.65;;;10.50;99.90;;;;;;5027665;28;20136;-36
2023/04/21 06:21:06;;;;;;;11.48;5.88;;;10.60;99.90;;;;;;5022682;28;20157;-36
2023/04/21 06:23:32;;;;;;;14.38;6.28;;;10.60;99.90;;;;;;5026324;28;20095;-36
2023/04/21 06:26:06;;;;;;;10.13;5.95;;;10.60;99.90;;;;;;5024110;28;20053;-36
2023/04/21 06:28:33;;;;;;;9.52;5.63;;;10.70;99.90;;;;;;5035086;28;20495;-36
2023/04/21 06:31:00;;;;;;;10.35;5.93;;;10.60;99.90;;;;;;5025448;28;20057;-35
2023/04/21 06:33:26;;;;;;;10.68;5.70;;;10.60;99.90;;;;;;5031074;28;20067;-36
2023/04/21 06:35:52;;;;;;;9.35;5.75;;;10.70;99.90;;;;;;5032480;28;20124;-35
2023/04/21 06:38:19;;;;;;;11.50;5.53;;;10.70;99.90;;;;;;5037784;28;20548;-34
2023/04/21 06:40:44;;;;;;;11.30;5.80;;;10.70;99.90;;;;;;5024889;28;20053;-35
2023/04/21 06:43:10;;;;;;;8.75;5.38;;;10.80;99.90;;;;;;5032621;28;20057;-34
2023/04/21 06:45:36;;;;;;;12.13;5.95;;;10.80;99.90;;;;;;5023666;28;20107;-34
2023/04/21 06:48:01;;;;;;;12.85;5.90;;;10.80;99.90;;;;;;5019013;28;20046;-34
2023/04/21 06:50:27;;;;;;;9.95;5.45;;;10.90;99.90;;;;;;5009387;28;20442;-35
2023/04/21 06:52:53;;;;;;;9.75;5.55;;;10.90;99.90;;;;;;5015949;28;20049;-33
2023/04/21 06:55:18;;;;;;;11.93;5.47;;;10.90;99.90;;;;;;5018463;28;20049;-34
2023/04/21 06:57:44;;;;;;;11.88;5.60;;;10.90;99.90;;;;;;5021486;28;20191;-34
2023/04/21 07:00:11;;;;;;;9.85;5.03;;;11.00;99.90;;;;;;5026051;28;20058;-34
2023/04/21 07:02:36;;;;;;;12.30;6.18;;;11.00;99.90;;;;;;5019106;28;20507;-34
2023/04/21 07:05:02;;;;;;;9.55;5.50;;;11.10;99.90;;;;;;5013014;28;20131;-34
2023/04/21 07:07:28;;;;;;;9.10;5.68;;;11.10;99.90;;;;;;5029116;28;20365;-34
2023/04/21 07:09:54;;;;;;;12.05;5.55;;;11.10;99.90;;;;;;5032681;28;20410;-34
2023/04/21 07:12:20;;;;;;;10.32;6.18;;;11.20;99.90;;;;;;5020596;28;20491;-34
2023/04/21 07:14:45;;;;;;;12.75;5.43;;;11.30;99.90;;;;;;5020834;28;20042;-34
2023/04/21 07:17:11;;;;;;;9.50;5.57;;;11.30;99.90;;;;;;5021576;28;20340;-34
2023/04/21 07:19:38;;;;;;;10.50;6.63;;;11.40;99.90;;;;;;5017010;28;20055;-34
2023/04/21 07:22:04;;;;;;;8.38;5.30;;;11.50;99.90;;;;;;5015992;28;20061;-33
2023/04/21 07:24:30;;;;;;;13.70;6.22;;;11.60;99.90;;;;;;5023963;28;20514;-34
2023/04/21 07:26:56;;;;;;;9.90;6.03;;;11.70;99.90;;;;;;5030570;28;20053;-34
2023/04/21 07:29:22;;;;;;;10.63;6.22;;;11.80;99.90;;;;;;5033625;28;20491;-34
2023/04/21 07:31:48;;;;;;;11.52;6.03;;;11.80;99.90;;;;;;5026509;28;20064;-34
2023/04/21 07:34:14;;;;;;;11.52;5.22;;;11.90;99.90;;;;;;5019398;28;20434;-34
2023/04/21 07:36:40;;;;;;;12.23;6.55;;;12.00;99.90;;;;;;5023640;28;20095;-34
2023/04/21 07:39:06;;;;;;;15.00;5.63;;;12.00;99.90;;;;;;5029615;28;20057;-34
2023/04/21 07:41:33;;;;;;;9.90;5.88;;;12.10;99.90;;;;;;5029751;28;20059;-34
2023/04/21 07:43:58;;;;;;;10.82;6.25;;;12.10;99.90;;;;;;5028018;28;20050;-34
2023/04/21 07:46:28;;;;;;;12.68;7.20;;;12.20;99.90;;;;;;5037208;28;20053;-35
2023/04/21 07:48:56;;;;;;;11.27;5.15;;;12.30;99.90;;;;;;5016297;28;20591;-35
2023/04/21 07:51:22;;;;;;;10.02;5.57;;;12.30;99.90;;;;;;5015995;28;20079;-35
2023/04/21 07:53:48;;;;;;;10.15;6.15;;;12.30;99.90;;;;;;5032340;28;20069;-35
2023/04/21 07:56:14;;;;;;;11.73;6.10;;;12.30;99.90;;;;;;5027189;28;20363;-35
2023/04/21 07:58:41;;;;;;;13.27;6.10;;;12.30;99.90;;;;;;5015592;28;20041;-35
2023/04/21 08:01:06;;;;;;;11.13;5.95;;;12.30;99.90;;;;;;5032929;28;20084;-35
2023/04/21 08:03:32;;;;;;;12.23;5.68;;;12.30;99.90;;;;;;5037372;28;20489;-35
2023/04/21 08:05:57;;;;;;;10.27;5.45;;;12.40;99.90;;;;;;5020666;28;20054;-34
2023/04/21 08:08:23;;;;;;;11.68;5.35;;;12.40;99.90;;;;;;5031174;28;20118;-35
2023/04/21 08:10:49;;;;;;;11.50;6.07;;;12.40;99.90;;;;;;5034516;28;20296;-34
2023/04/21 08:13:15;;;;;;;8.63;5.63;;;12.50;99.90;;;;;;5032897;28;20053;-35
2023/04/21 08:15:40;;;;;;;12.52;6.35;;;12.50;99.90;;;;;;5036587;28;20402;-34
2023/04/21 08:18:07;;;;;;;10.63;5.63;;;12.50;99.90;;;;;;5024829;28;20054;-34
2023/04/21 08:20:33;;;;;;;8.55;5.63;;;12.50;99.90;;;;;;5034394;28;20049;-34
2023/04/21 08:22:59;;;;;;;10.73;5.72;;;12.60;99.90;;;;;;5014442;28;20486;-34
2023/04/21 08:25:24;;;;;;;13.77;6.40;;;12.60;99.90;;;;;;5019009;28;20054;-34
2023/04/21 08:27:50;;;;;;;11.18;6.20;;;12.70;99.90;;;;;;5030291;28;20099;-34
2023/04/21 08:30:16;;;;;;;14.85;6.68;;;12.80;99.90;;;;;;5025182;28;20061;-34
2023/04/21 08:32:41;;;;;;;14.48;6.22;;;12.90;99.90;;;;;;5018298;28;20060;-34
2023/04/21 08:35:07;;;;;;;9.75;6.25;;;13.10;99.90;;;;;;5016212;28;20081;-34
2023/04/21 08:37:36;;;;;;;11.52;6.38;;;13.20;99.90;;;;;;5015673;28;20128;-34
2023/04/21 08:40:05;;;;;;;9.98;5.95;;;13.40;99.90;;;;;;5026229;28;20056;-33
2023/04/21 08:42:32;;;;;;;11.90;6.13;;;13.60;99.90;;;;;;5044202;28;20128;-34
2023/04/21 08:44:58;;;;;;;12.00;6.60;;;13.90;99.90;;;;;;5030612;28;20487;-34
2023/04/21 08:47:24;;;;;;;9.63;6.47;;;14.10;99.90;;;;;;5019771;28;20422;-34
2023/04/21 08:49:51;;;;;;;9.65;6.28;;;14.10;99.90;;;;;;5020939;28;20060;-34
2023/04/21 08:52:17;;;;;;;9.63;6.63;;;14.10;99.90;;;;;;5031893;28;20130;-34
2023/04/21 08:54:43;;;;;;;12.63;6.80;;;14.20;99.90;;;;;;5031877;28;20046;-34
2023/04/21 08:57:08;;;;;;;12.20;6.65;;;14.30;99.90;;;;;;5023399;28;20049;-34
2023/04/21 08:59:34;;;;;;;9.80;6.60;;;14.30;99.90;;;;;;5033481;28;20458;-33
2023/04/21 09:02:09;;;;;;;14.10;7.50;;;14.50;99.90;;;;;;5026708;28;20057;-34
2023/04/21 09:04:37;;;;;;;8.35;6.13;;;14.60;99.90;;;;;;5033041;28;20506;-33
2023/04/21 09:07:03;;;;;;;13.10;6.97;;;14.70;99.90;;;;;;5027598;28;20080;-34
2023/04/21 09:09:28;;;;;;;11.40;6.10;;;14.90;99.90;;;;;;5027995;28;20141;-34
2023/04/21 09:11:58;;;;;;;10.13;6.03;;;15.10;99.90;;;;;;5028190;28;20144;-34
2023/04/21 09:14:34;;;;;;;10.45;5.72;;;15.20;99.90;;;;;;5035738;28;20132;-34
2023/04/21 09:17:01;;;;;;;12.27;6.93;;;15.40;99.90;;;;;;5030961;28;20056;-34
2023/04/21 09:19:33;;;;;;;10.95;6.25;;;15.60;99.90;;;;;;5017334;28;20283;-34
2023/04/21 09:21:59;;;;;;;13.35;6.55;;;15.70;99.90;;;;;;5016800;28;20188;-34
2023/04/21 09:24:25;;;;;;;14.48;7.20;;;15.80;99.90;;;;;;5014182;28;20161;-34
2023/04/21 09:26:52;;;;;;;16.63;6.32;;;15.70;99.90;;;;;;5012861;28;20074;-33
2023/04/21 09:29:21;;;;;;;12.95;6.45;;;15.60;99.90;;;;;;5020584;28;20080;-34
2023/04/21 09:31:49;;;;;;;12.10;7.75;;;15.50;99.90;;;;;;5012599;28;20140;-36
2023/04/21 09:34:25;;;;;;;12.68;7.20;;;15.50;99.90;;;;;;5030155;28;20136;-34
2023/04/21 09:37:04;;;;;;;9.25;6.35;;;15.40;99.90;;;;;;5021702;28;20071;-34
2023/04/21 09:39:31;;;;;;;12.05;6.88;;;15.40;99.90;;;;;;5022306;28;20494;-34
2023/04/21 09:41:57;;;;;;;12.73;6.32;;;15.30;99.90;;;;;;5019497;28;20791;-34
2023/04/21 09:44:27;;;;;;;12.50;7.22;;;15.30;99.90;;;;;;5031187;28;20561;-34
2023/04/21 09:47:12;;;;;;;12.45;7.22;;;15.30;99.90;;;;;;5030309;28;20058;-34
2023/04/21 09:49:43;;;;;;;11.23;6.93;;;15.50;99.90;;;;;;5043900;28;20463;-34
2023/04/21 09:52:11;;;;;;;13.38;6.72;;;15.70;99.90;;;;;;5020234;28;20081;-34
2023/04/21 09:54:44;;;;;;;13.60;6.45;;;15.90;99.90;;;;;;5024826;28;20093;-34
2023/04/21 09:57:13;;;;;;;9.55;6.18;;;16.10;99.90;;;;;;5028268;28;20048;-35
2023/04/21 09:59:44;;;;;;;17.38;7.28;;;16.20;99.90;;;;;;5035497;28;20509;-34
2023/04/21 10:02:11;;;;;;;14.98;7.80;;;16.30;99.90;;;;;;5036348;28;20127;-34
2023/04/21 10:04:40;;;;;;;13.77;7.25;;;16.40;99.90;;;;;;5034537;28;22214;-34
2023/04/21 10:07:06;;;;;;;15.38;7.97;;;16.30;99.90;;;;;;5035151;28;20069;-34
2023/04/21 10:09:40;;;;;;;12.48;6.78;;;16.30;99.90;;;;;;5037697;28;20045;-33
2023/04/21 10:12:07;;;;;;;10.82;6.72;;;16.20;99.90;;;;;;5029073;28;20061;-34
2023/04/21 10:14:33;;;;;;;12.43;7.10;;;16.10;99.90;;;;;;5027957;28;20049;-33
2023/04/21 10:17:08;;;;;;;11.18;7.20;;;16.00;99.90;;;;;;5039705;28;20103;-34
2023/04/21 10:19:38;;;;;;;13.77;6.93;;;15.90;99.90;;;;;;5022575;28;20056;-33
2023/04/21 10:22:10;;;;;;;10.43;6.28;;;15.80;99.90;;;;;;5037884;28;20090;-33
2023/04/21 10:24:38;;;;;;;11.45;7.60;;;15.80;99.90;;;;;;5029624;28;20128;-33
2023/04/21 10:27:04;;;;;;;10.77;7.55;;;15.80;99.90;;;;;;5041503;28;20461;-34
2023/04/21 10:29:32;;;;;;;14.88;7.20;;;15.80;99.90;;;;;;5037206;28;20057;-34
2023/04/21 10:31:58;;;;;;;14.85;8.32;;;15.70;99.90;;;;;;5033749;28;20045;-35
2023/04/21 10:34:36;;;;;;;12.68;8.05;;;15.70;99.90;;;;;;5037456;28;20060;-34
2023/04/21 10:37:05;;;;;;;9.82;6.93;;;15.60;99.90;;;;;;5028837;28;20061;-34
2023/04/21 10:39:38;;;;;;;15.32;7.72;;;15.50;99.90;;;;;;5035783;28;20056;-34
2023/04/21 10:42:21;;;;;;;12.30;7.50;;;15.50;99.90;;;;;;5030041;28;20570;-34
2023/04/21 10:45:04;;;;;;;15.18;7.53;;;15.40;99.90;;;;;;5027403;28;20064;-34
2023/04/21 10:47:42;;;;;;;13.48;7.75;;;15.40;99.90;;;;;;5023327;28;20499;-34
2023/04/21 10:50:29;;;;;;;12.05;7.13;;;15.40;99.90;;;;;;5039149;28;20060;-34
2023/04/21 10:53:15;;;;;;;12.38;7.57;;;15.40;99.90;;;;;;5024437;28;20053;-34
2023/04/21 10:55:42;;;;;;;13.45;7.88;;;15.30;99.90;;;;;;5022872;28;20050;-35
2023/04/21 10:58:08;;;;;;;13.13;8.18;;;15.30;99.90;;;;;;5031547;28;20072;-34
2023/04/21 11:00:37;;;;;;;12.65;7.78;;;15.30;99.90;;;;;;5030670;28;20050;-34
2023/04/21 11:03:05;;;;;;;11.23;7.18;;;15.40;99.90;;;;;;5040783;28;20044;-34
2023/04/21 11:05:37;;;;;;;14.38;7.90;;;15.40;99.90;;;;;;5040440;28;20073;-33
2023/04/21 11:08:05;;;;;;;13.65;8.00;;;15.50;99.90;;;;;;5035086;28;20053;-34
2023/04/21 11:10:46;;;;;;;13.70;7.68;;;15.50;99.90;;;;;;5032991;28;20143;-34
2023/04/21 11:13:12;;;;;;;17.02;8.13;;;15.50;99.90;;;;;;5030955;28;20055;-33
2023/04/21 11:15:37;;;;;;;11.82;8.18;;;15.60;99.90;;;;;;5040346;28;20044;-34
2023/04/21 11:18:07;;;;;;;11.55;7.78;;;15.60;99.90;;;;;;5036517;28;20079;-34
2023/04/21 11:20:33;;;;;;;18.55;8.45;;;15.60;99.90;;;;;;5018211;28;20046;-34
2023/04/21 11:22:58;;;;;;;11.93;7.80;;;15.70;99.90;;;;;;5034494;28;20136;-34
2023/04/21 11:25:24;;;;;;;13.75;8.02;;;15.80;99.90;;;;;;5043408;28;20064;-34
2023/04/21 11:27:54;;;;;;;15.13;8.77;;;15.80;99.90;;;;;;5039383;28;20182;-34
2023/04/21 11:30:29;;;;;;;12.10;7.63;;;15.70;99.90;;;;;;5033247;28;20388;-34
2023/04/21 11:32:55;;;;;;;11.52;7.80;;;15.70;99.90;;;;;;5043567;28;20049;-34
2023/04/21 11:35:21;;;;;;;9.95;7.18;;;15.60;99.90;;;;;;5022271;28;20060;-34
2023/04/21 11:37:50;;;;;;;13.43;8.52;;;15.60;99.90;;;;;;5032520;28;20202;-34
2023/04/21 11:40:16;;;;;;;16.02;7.45;;;15.50;99.90;;;;;;5036037;28;20080;-34
2023/04/21 11:42:42;;;;;;;12.20;8.02;;;15.50;99.90;;;;;;5036628;28;20076;-34
2023/04/21 11:45:17;;;;;;;12.23;8.00;;;15.60;99.90;;;;;;5030983;28;20103;-34
2023/04/21 11:47:42;;;;;;;13.75;7.50;;;15.60;99.90;;;;;;5022248;28;20132;-34
2023/04/21 11:50:09;;;;;;;12.68;8.68;;;15.70;99.90;;;;;;5041365;28;20128;-34
2023/04/21 11:52:40;;;;;;;15.63;8.98;;;15.80;99.90;;;;;;5020416;28;20056;-34
2023/04/21 11:55:11;;;;;;;12.85;8.52;;;15.90;99.90;;;;;;5018364;28;20152;-34
2023/04/21 11:57:39;;;;;;;12.30;8.23;;;16.00;99.90;;;;;;5020203;28;20046;-34
2023/04/21 12:00:07;;;;;;;15.13;8.75;;;16.10;99.90;;;;;;5017799;28;20050;-34
2023/04/21 12:02:33;;;;;;;12.63;8.18;;;16.20;99.90;;;;;;5046341;28;20072;-34
2023/04/21 12:05:00;;;;;;;12.90;8.70;;;16.30;99.90;;;;;;5024595;28;20049;-33
2023/04/21 12:07:27;;;;;;;13.00;8.20;;;16.30;99.90;;;;;;5037704;28;20060;-34
2023/04/21 12:09:53;;;;;;;14.95;8.27;;;16.40;99.90;;;;;;5024792;28;20603;-34
2023/04/21 12:12:21;;;;;;;12.45;8.43;;;16.40;99.90;;;;;;5031091;28;20140;-34
2023/04/21 12:14:48;;;;;;;16.77;9.00;;;16.50;99.90;;;;;;5032022;28;20049;-34
2023/04/21 12:17:14;;;;;;;18.13;9.50;;;16.60;99.90;;;;;;5027423;28;20394;-34
2023/04/21 12:19:41;;;;;;;17.90;8.90;;;16.70;99.90;;;;;;5020467;28;20141;-34
2023/04/21 12:22:17;;;;;;;13.45;8.43;;;16.70;99.90;;;;;;5028124;28;20626;-34
2023/04/21 12:24:43;;;;;;;15.30;9.32;;;16.70;99.90;;;;;;5021195;28;20129;-34
2023/04/21 12:27:09;;;;;;;14.07;8.65;;;16.70;99.90;;;;;;5013823;28;20054;-34
2023/04/21 12:29:36;;;;;;;11.80;8.80;;;16.60;99.90;;;;;;5028277;28;20057;-34
2023/04/21 12:32:02;;;;;;;12.50;8.93;;;16.60;99.90;;;;;;5043624;28;20475;-34
2023/04/21 12:34:28;;;;;;;18.63;9.95;;;16.60;99.90;;;;;;5034386;28;20057;-34
2023/04/21 12:36:54;;;;;;;15.90;9.07;;;16.60;99.90;;;;;;5026177;28;20053;-34
2023/04/21 12:39:20;;;;;;;12.30;9.02;;;16.70;99.90;;;;;;5033140;28;20441;-34
2023/04/21 12:41:46;;;;;;;14.27;9.27;;;16.70;99.90;;;;;;5018374;28;20050;-34